createdAt,value
2018-02-15T04:00:42.373Z,1006.20
2018-02-15T04:01:41.890Z,1006.23
2018-02-15T04:04:25.792Z,1006.14
2018-02-15T04:05:24.797Z,1006.18
2018-02-15T04:06:24.784Z,1006.21
2018-02-15T04:07:24.777Z,1006.19
2018-02-15T04:08:27.033Z,1006.22
2018-02-15T04:09:25.686Z,1006.37
2018-02-15T04:10:25.695Z,1006.29
2018-02-15T04:11:26.245Z,1006.26
2018-02-15T04:12:25.182Z,1006.39
2018-02-15T04:13:27.157Z,1006.38
2018-02-15T04:14:28.256Z,1006.41
2018-02-15T04:15:25.681Z,1006.37
2018-02-15T04:16:25.080Z,1006.33
2018-02-15T04:17:25.071Z,1006.40
2018-02-15T04:18:25.307Z,1006.36
2018-02-15T04:19:25.084Z,1006.42
2018-02-15T04:20:25.112Z,1006.44
2018-02-15T04:21:25.543Z,1006.48
2018-02-15T04:22:24.611Z,1006.45
2018-02-15T04:23:24.629Z,1006.39
2018-02-15T04:24:24.572Z,1006.40
2018-02-15T04:25:24.568Z,1006.47
2018-02-15T04:26:24.559Z,1006.51
2018-02-15T04:27:24.558Z,1006.41
2018-02-15T04:28:24.567Z,1006.45
2018-02-15T04:29:24.543Z,1006.46
2018-02-15T04:30:24.513Z,1006.46
2018-02-15T04:31:24.504Z,1006.44
2018-02-15T04:32:24.509Z,1006.46
2018-02-15T04:33:24.487Z,1006.51
2018-02-15T04:34:24.473Z,1006.55
2018-02-15T04:35:24.457Z,1006.50
2018-02-15T04:36:24.461Z,1006.66
2018-02-15T04:37:24.444Z,1006.55
2018-02-15T04:38:24.427Z,1006.59
2018-02-15T04:39:24.420Z,1006.64
2018-02-15T04:40:24.406Z,1006.56
2018-02-15T04:41:24.392Z,1006.56
2018-02-15T04:42:24.376Z,1006.55
2018-02-15T04:43:24.391Z,1006.52
2018-02-15T04:44:24.376Z,1006.42
2018-02-15T04:45:24.377Z,1006.50
2018-02-15T04:46:24.350Z,1006.47
2018-02-15T04:47:24.330Z,1006.42
2018-02-15T04:48:24.323Z,1006.38
2018-02-15T04:49:24.307Z,1006.38
2018-02-15T04:50:24.312Z,1006.33
2018-02-15T04:51:24.286Z,1006.33
2018-02-15T04:52:24.272Z,1006.32
2018-02-15T04:53:24.286Z,1006.30
2018-02-15T04:54:24.252Z,1006.38
2018-02-15T04:55:24.262Z,1006.31
2018-02-15T04:56:24.232Z,1006.35
2018-02-15T04:57:24.303Z,1006.26
2018-02-15T04:58:24.235Z,1006.26
2018-02-15T04:59:24.222Z,1006.24
2018-02-15T05:00:24.190Z,1006.32
2018-02-15T05:01:24.176Z,1006.29
2018-02-15T05:02:24.192Z,1006.32
2018-02-15T05:03:24.169Z,1006.32
2018-02-15T05:04:24.185Z,1006.34
2018-02-15T05:05:24.137Z,1006.41
2018-02-15T05:06:24.146Z,1006.39
2018-02-15T05:07:25.304Z,1006.37
2018-02-15T05:08:24.093Z,1006.37
2018-02-15T05:09:24.089Z,1006.32
2018-02-15T05:10:24.106Z,1006.37
2018-02-15T05:11:24.166Z,1006.39
2018-02-15T05:12:24.104Z,1006.42
2018-02-15T05:13:24.069Z,1006.44
2018-02-15T05:14:24.037Z,1006.37
2018-02-15T05:15:24.038Z,1006.40
2018-02-15T05:16:24.023Z,1006.44
2018-02-15T05:17:24.019Z,1006.36
2018-02-15T05:18:23.993Z,1006.31
2018-02-15T05:19:23.981Z,1006.31
2018-02-15T05:20:23.975Z,1006.29
2018-02-15T05:21:23.961Z,1006.32
2018-02-15T05:22:23.949Z,1006.26
2018-02-15T05:23:23.946Z,1006.28
2018-02-15T05:24:23.926Z,1006.28
2018-02-15T05:25:23.918Z,1006.12
2018-02-15T05:26:23.910Z,1006.20
2018-02-15T05:27:23.881Z,1006.15
2018-02-15T05:28:23.883Z,1006.08
2018-02-15T05:29:23.866Z,1006.08
2018-02-15T05:30:23.884Z,1006.06
2018-02-15T05:31:23.847Z,1006.08
2018-02-15T05:32:23.835Z,1006.01
2018-02-15T05:33:23.822Z,1006.02
2018-02-15T05:34:23.813Z,1006.10
2018-02-15T05:35:23.800Z,1006.01
2018-02-15T05:36:23.804Z,1005.98
2018-02-15T05:37:23.772Z,1005.98
2018-02-15T05:38:23.776Z,1005.99
2018-02-15T05:39:23.747Z,1005.94
2018-02-15T05:40:23.744Z,1005.96
2018-02-15T05:41:23.734Z,1005.98
2018-02-15T05:42:23.712Z,1005.98
2018-02-15T05:43:23.709Z,1006.05
2018-02-15T05:44:23.698Z,1005.95
2018-02-15T05:45:23.684Z,1006.03
2018-02-15T05:46:23.666Z,1005.93
2018-02-15T05:47:23.678Z,1005.94
2018-02-15T05:48:23.658Z,1005.92
2018-02-15T05:49:23.641Z,1005.98
2018-02-15T05:50:23.638Z,1005.94
2018-02-15T05:51:23.617Z,1005.97
2018-02-15T05:52:23.631Z,1005.91
2018-02-15T05:53:23.589Z,1005.94
2018-02-15T05:54:23.596Z,1005.95
2018-02-15T05:55:23.610Z,1005.91
2018-02-15T05:56:23.568Z,1005.96
2018-02-15T05:57:23.562Z,1005.97
2018-02-15T05:58:23.536Z,1005.97
2018-02-15T05:59:23.538Z,1005.88
2018-02-15T06:00:23.515Z,1005.97
2018-02-15T06:01:23.513Z,1005.89
2018-02-15T06:02:23.496Z,1005.89
2018-02-15T06:03:23.480Z,1005.93
2018-02-15T06:04:23.473Z,1005.92
2018-02-15T06:05:23.454Z,1005.96
2018-02-15T06:06:23.483Z,1005.88
2018-02-15T06:07:23.450Z,1006.00
2018-02-15T06:08:23.438Z,1005.89
2018-02-15T06:09:23.424Z,1006.00
2018-02-15T06:10:23.417Z,1005.99
2018-02-15T06:11:23.407Z,1005.98
2018-02-15T06:12:23.391Z,1005.94
2018-02-15T06:13:23.379Z,1006.08
2018-02-15T06:14:23.374Z,1005.94
2018-02-15T06:15:23.358Z,1005.90
2018-02-15T06:16:23.365Z,1005.97
2018-02-15T06:17:23.341Z,1005.87
2018-02-15T06:18:23.340Z,1005.91
2018-02-15T06:19:23.314Z,1005.90
2018-02-15T06:20:23.313Z,1005.83
2018-02-15T06:21:23.286Z,1005.86
2018-02-15T06:22:23.285Z,1005.83
2018-02-15T06:23:23.262Z,1005.90
2018-02-15T06:24:23.262Z,1005.78
2018-02-15T06:25:23.247Z,1005.78
2018-02-15T06:26:23.231Z,1005.78
2018-02-15T06:27:23.219Z,1005.81
2018-02-15T06:28:23.209Z,1005.87
2018-02-15T06:29:23.204Z,1005.76
2018-02-15T06:30:23.190Z,1005.75
2018-02-15T06:31:23.177Z,1005.81
2018-02-15T06:32:23.167Z,1005.86
2018-02-15T06:33:23.153Z,1005.92
2018-02-15T06:34:23.144Z,1005.89
2018-02-15T06:35:23.148Z,1005.79
2018-02-15T06:36:23.121Z,1005.79
2018-02-15T06:37:23.110Z,1005.93
2018-02-15T06:38:23.099Z,1005.84
2018-02-15T06:39:23.088Z,1005.85
2018-02-15T06:40:23.068Z,1005.82
2018-02-15T06:41:23.072Z,1005.79
2018-02-15T06:42:23.049Z,1005.80
2018-02-15T06:43:23.049Z,1005.88
2018-02-15T06:44:23.036Z,1005.93
2018-02-15T06:45:23.024Z,1005.97
2018-02-15T06:46:23.011Z,1006.04
2018-02-15T06:47:23.007Z,1005.96
2018-02-15T06:48:23.016Z,1006.02
2018-02-15T06:49:22.978Z,1006.08
2018-02-15T06:50:22.976Z,1006.04
2018-02-15T06:51:22.969Z,1006.04
2018-02-15T06:52:22.945Z,1006.03
2018-02-15T06:53:22.933Z,1005.97
2018-02-15T06:54:22.922Z,1006.05
2018-02-15T06:55:22.913Z,1006.07
2018-02-15T06:56:22.899Z,1006.04
2018-02-15T06:57:22.886Z,1006.05
2018-02-15T06:58:22.894Z,1006.03
2018-02-15T06:59:22.858Z,1006.04
2018-02-15T07:00:22.859Z,1006.06
2018-02-15T07:01:22.841Z,1006.09
2018-02-15T07:02:22.848Z,1005.93
2018-02-15T07:03:22.841Z,1005.97
2018-02-15T07:04:22.811Z,1005.99
2018-02-15T07:05:22.799Z,1005.92
2018-02-15T07:06:22.787Z,1005.95
2018-02-15T07:07:22.775Z,1005.96
2018-02-15T07:08:22.789Z,1005.88
2018-02-15T07:09:22.756Z,1005.85
2018-02-15T07:10:22.743Z,1005.91
2018-02-15T07:11:22.736Z,1005.84
2018-02-15T07:12:22.725Z,1005.87
2018-02-15T07:13:22.715Z,1005.91
2018-02-15T07:14:22.704Z,1005.92
2018-02-15T07:15:22.686Z,1005.94
2018-02-15T07:16:22.681Z,1005.95
2018-02-15T07:17:22.665Z,1006.03
2018-02-15T07:18:22.652Z,1005.97
2018-02-15T07:19:22.643Z,1005.94
2018-02-15T07:20:22.636Z,1005.98
2018-02-15T07:21:22.619Z,1005.99
2018-02-15T07:22:22.610Z,1006.02
2018-02-15T07:23:22.598Z,1005.98
2018-02-15T07:24:22.591Z,1005.95
2018-02-15T07:25:22.583Z,1005.92
2018-02-15T07:26:22.567Z,1005.97
2018-02-15T07:27:22.557Z,1005.99
2018-02-15T07:28:22.541Z,1005.93
2018-02-15T07:29:22.530Z,1005.96
2018-02-15T07:30:22.526Z,1005.93
2018-02-15T07:31:22.507Z,1005.97
2018-02-15T07:32:22.500Z,1005.89
2018-02-15T07:33:22.489Z,1005.91
2018-02-15T07:34:22.479Z,1005.85
2018-02-15T07:35:22.467Z,1005.93
2018-02-15T07:36:22.487Z,1005.88
2018-02-15T07:37:22.452Z,1005.89
2018-02-15T07:38:22.435Z,1005.77
2018-02-15T07:39:22.424Z,1005.78
2018-02-15T07:40:22.430Z,1005.74
2018-02-15T07:41:22.406Z,1005.73
2018-02-15T07:42:22.391Z,1005.65
2018-02-15T07:43:22.379Z,1005.64
2018-02-15T07:44:22.389Z,1005.66
2018-02-15T07:45:22.357Z,1005.57
2018-02-15T07:46:22.346Z,1005.54
2018-02-15T07:47:22.333Z,1005.49
2018-02-15T07:48:22.317Z,1005.44
2018-02-15T07:49:22.309Z,1005.46
2018-02-15T07:50:22.298Z,1005.47
2018-02-15T07:51:22.291Z,1005.42
2018-02-15T07:52:22.279Z,1005.48
2018-02-15T07:53:22.261Z,1005.47
2018-02-15T07:54:22.257Z,1005.48
2018-02-15T07:55:22.254Z,1005.49
2018-02-15T07:56:22.237Z,1005.51
2018-02-15T07:57:22.227Z,1005.55
2018-02-15T07:58:22.212Z,1005.53
2018-02-15T07:59:22.192Z,1005.55
2018-02-15T08:00:22.201Z,1005.56
2018-02-15T08:01:22.176Z,1005.56
2018-02-15T08:02:22.162Z,1005.49
2018-02-15T08:03:22.164Z,1005.59
2018-02-15T08:04:22.145Z,1005.52
2018-02-15T08:05:22.143Z,1005.58
2018-02-15T08:06:22.125Z,1005.62
2018-02-15T08:07:22.110Z,1005.60
2018-02-15T08:08:22.100Z,1005.58
2018-02-15T08:09:22.091Z,1005.63
2018-02-15T08:10:22.080Z,1005.58
2018-02-15T08:11:22.068Z,1005.57
2018-02-15T08:12:22.056Z,1005.62
2018-02-15T08:13:22.047Z,1005.54
2018-02-15T08:14:22.055Z,1005.51
2018-02-15T08:15:22.023Z,1005.60
2018-02-15T08:16:22.020Z,1005.58
2018-02-15T08:17:22.002Z,1005.58
2018-02-15T08:18:21.996Z,1005.57
2018-02-15T08:19:21.985Z,1005.59
2018-02-15T08:20:21.973Z,1005.70
2018-02-15T08:21:21.957Z,1005.74
2018-02-15T08:22:21.954Z,1005.69
2018-02-15T08:23:21.942Z,1005.78
2018-02-15T08:24:21.921Z,1005.81
2018-02-15T08:25:21.917Z,1005.72
2018-02-15T08:26:21.904Z,1005.76
2018-02-15T08:27:21.892Z,1005.78
2018-02-15T08:28:21.880Z,1005.76
2018-02-15T08:29:21.870Z,1005.83
2018-02-15T08:30:21.860Z,1005.84
2018-02-15T08:31:21.851Z,1005.84
2018-02-15T08:32:21.848Z,1005.81
2018-02-15T08:33:21.823Z,1005.90
2018-02-15T08:34:21.818Z,1005.85
2018-02-15T08:35:21.805Z,1005.88
2018-02-15T08:36:21.795Z,1005.86
2018-02-15T08:37:21.784Z,1005.86
2018-02-15T08:38:21.776Z,1005.79
2018-02-15T08:39:21.765Z,1005.95
2018-02-15T08:40:21.751Z,1005.88
2018-02-15T08:41:21.745Z,1005.91
2018-02-15T08:42:21.744Z,1005.99
2018-02-15T08:43:21.720Z,1005.96
2018-02-15T08:44:21.756Z,1005.96
2018-02-15T08:45:21.700Z,1005.95
2018-02-15T08:46:21.688Z,1005.98
2018-02-15T08:47:21.678Z,1006.01
2018-02-15T08:48:21.669Z,1005.98
2018-02-15T08:49:21.658Z,1005.97
2018-02-15T08:50:21.647Z,1006.03
2018-02-15T08:51:21.638Z,1006.00
2018-02-15T08:52:21.642Z,1006.00
2018-02-15T08:53:21.616Z,1005.99
2018-02-15T08:54:21.605Z,1005.93
2018-02-15T08:55:21.593Z,1006.02
2018-02-15T08:56:21.587Z,1006.01
2018-02-15T08:57:21.577Z,1006.01
2018-02-15T08:58:21.576Z,1005.95
2018-02-15T08:59:21.551Z,1005.95
2018-02-15T09:00:21.537Z,1005.92
2018-02-15T09:01:21.546Z,1005.90
2018-02-15T09:02:21.518Z,1006.02
2018-02-15T09:03:21.512Z,1005.97
2018-02-15T09:04:21.500Z,1006.00
2018-02-15T09:05:21.490Z,1006.03
2018-02-15T09:06:21.476Z,1006.00
2018-02-15T09:07:21.461Z,1005.99
2018-02-15T09:08:21.456Z,1006.01
2018-02-15T09:09:21.497Z,1005.97
2018-02-15T09:10:21.442Z,1005.97
2018-02-15T09:11:21.425Z,1005.99
2018-02-15T09:12:21.415Z,1005.96
2018-02-15T09:13:21.405Z,1006.03
2018-02-15T09:14:21.391Z,1005.97
2018-02-15T09:15:21.381Z,1005.92
2018-02-15T09:16:21.389Z,1005.96
2018-02-15T09:17:21.385Z,1006.00
2018-02-15T09:18:21.357Z,1005.92
2018-02-15T09:19:21.351Z,1005.92
2018-02-15T09:20:21.325Z,1005.96
2018-02-15T09:21:21.320Z,1005.88
2018-02-15T09:22:21.315Z,1005.89
2018-02-15T09:23:21.298Z,1005.91
2018-02-15T09:24:21.290Z,1005.83
2018-02-15T09:25:21.280Z,1005.85
2018-02-15T09:26:21.266Z,1005.87
2018-02-15T09:27:21.262Z,1005.87
2018-02-15T09:28:21.242Z,1005.82
2018-02-15T09:29:21.235Z,1005.91
2018-02-15T09:30:21.227Z,1005.90
2018-02-15T09:31:21.217Z,1005.86
2018-02-15T09:32:21.207Z,1005.89
2018-02-15T09:33:21.198Z,1005.86
2018-02-15T09:34:21.184Z,1005.87
2018-02-15T09:35:21.178Z,1005.91
2018-02-15T09:36:21.162Z,1005.86
2018-02-15T09:37:21.152Z,1005.86
2018-02-15T09:38:21.145Z,1005.81
2018-02-15T09:39:21.133Z,1005.84
2018-02-15T09:40:21.127Z,1005.77
2018-02-15T09:41:21.115Z,1005.80
2018-02-15T09:42:21.104Z,1005.83
2018-02-15T09:43:21.107Z,1005.83
2018-02-15T09:44:21.086Z,1005.82
2018-02-15T09:45:21.075Z,1005.85
2018-02-15T09:46:21.072Z,1005.86
2018-02-15T09:47:21.052Z,1005.84
2018-02-15T09:48:21.042Z,1005.84
2018-02-15T09:49:21.042Z,1005.90
2018-02-15T09:50:21.028Z,1005.88
2018-02-15T09:51:21.028Z,1005.87
2018-02-15T09:52:21.009Z,1005.89
2018-02-15T09:53:21.000Z,1005.93
2018-02-15T09:54:20.991Z,1005.88
2018-02-15T09:55:20.976Z,1005.87
2018-02-15T09:56:20.968Z,1005.86
2018-02-15T09:57:20.958Z,1005.88
2018-02-15T09:58:20.947Z,1005.83
2018-02-15T09:59:20.941Z,1005.88
2018-02-15T10:00:20.931Z,1005.85
2018-02-15T10:01:20.919Z,1005.93
2018-02-15T10:02:20.911Z,1005.89
2018-02-15T10:03:20.900Z,1005.88
2018-02-15T10:04:20.903Z,1005.90
2018-02-15T10:05:20.885Z,1005.84
2018-02-15T10:06:20.879Z,1005.92
2018-02-15T10:07:20.856Z,1005.91
2018-02-15T10:08:20.854Z,1005.83
2018-02-15T10:09:20.849Z,1005.83
2018-02-15T10:10:20.826Z,1005.81
2018-02-15T10:11:20.823Z,1005.79
2018-02-15T10:12:20.814Z,1005.84
2018-02-15T10:13:20.818Z,1005.81
2018-02-15T10:14:20.796Z,1005.80
2018-02-15T10:15:20.790Z,1005.76
2018-02-15T10:16:20.775Z,1005.79
2018-02-15T10:17:20.767Z,1005.75
2018-02-15T10:18:20.755Z,1005.85
2018-02-15T10:19:20.748Z,1005.90
2018-02-15T10:20:20.749Z,1005.83
2018-02-15T10:21:20.729Z,1005.82
2018-02-15T10:22:20.718Z,1005.79
2018-02-15T10:23:20.702Z,1005.76
2018-02-15T10:24:20.698Z,1005.78
2018-02-15T10:25:20.686Z,1005.72
2018-02-15T10:26:20.683Z,1005.74
2018-02-15T10:27:20.672Z,1005.76
2018-02-15T10:28:20.659Z,1005.77
2018-02-15T10:29:20.681Z,1005.86
2018-02-15T10:30:20.645Z,1005.86
2018-02-15T10:31:20.630Z,1005.87
2018-02-15T10:32:20.625Z,1005.88
2018-02-15T10:33:20.622Z,1005.90
2018-02-15T10:34:20.604Z,1005.94
2018-02-15T10:35:20.600Z,1005.93
2018-02-15T10:36:20.594Z,1005.93
2018-02-15T10:37:20.570Z,1005.94
2018-02-15T10:38:20.563Z,1005.96
2018-02-15T10:39:20.556Z,1006.15
2018-02-15T10:40:20.542Z,1006.02
2018-02-15T10:41:20.538Z,1006.03
2018-02-15T10:42:20.525Z,1006.05
2018-02-15T10:43:20.529Z,1006.02
2018-02-15T10:44:20.513Z,1006.10
2018-02-15T10:45:20.499Z,1006.08
2018-02-15T10:46:20.488Z,1006.08
2018-02-15T10:47:20.493Z,1006.04
2018-02-15T10:48:20.470Z,1006.05
2018-02-15T10:49:20.459Z,1006.01
2018-02-15T10:50:20.448Z,1006.03
2018-02-15T10:51:20.435Z,1006.03
2018-02-15T10:52:20.432Z,1006.03
2018-02-15T10:53:20.418Z,1006.03
2018-02-15T10:54:20.405Z,1005.96
2018-02-15T10:55:20.399Z,1005.94
2018-02-15T10:56:20.390Z,1005.95
2018-02-15T10:57:20.388Z,1005.97
2018-02-15T10:58:20.369Z,1006.00
2018-02-15T10:59:20.361Z,1006.02
2018-02-15T11:00:20.351Z,1006.02
2018-02-15T11:01:20.341Z,1006.04
2018-02-15T11:02:20.330Z,1006.03
2018-02-15T11:03:20.324Z,1005.97
2018-02-15T11:04:20.309Z,1006.02
2018-02-15T11:05:20.302Z,1006.06
2018-02-15T11:06:20.288Z,1005.99
2018-02-15T11:07:20.279Z,1006.01
2018-02-15T11:08:20.287Z,1006.07
2018-02-15T11:09:20.256Z,1006.06
2018-02-15T11:10:20.249Z,1006.07
2018-02-15T11:11:20.244Z,1006.01
2018-02-15T11:12:20.235Z,1006.02
2018-02-15T11:13:20.229Z,1005.98
2018-02-15T11:14:20.212Z,1006.06
2018-02-15T11:15:20.209Z,1006.09
2018-02-15T11:16:20.187Z,1006.08
2018-02-15T11:17:20.183Z,1006.08
2018-02-15T11:18:20.172Z,1006.02
2018-02-15T11:19:20.164Z,1005.98
2018-02-15T11:20:20.152Z,1005.99
2018-02-15T11:21:20.143Z,1006.00
2018-02-15T11:22:20.133Z,1006.01
2018-02-15T11:23:20.125Z,1006.00
2018-02-15T11:24:20.117Z,1006.04
2018-02-15T11:25:20.108Z,1006.03
2018-02-15T11:26:20.096Z,1006.03
2018-02-15T11:27:20.093Z,1006.06
2018-02-15T11:28:20.088Z,1006.08
2018-02-15T11:29:20.068Z,1006.09
2018-02-15T11:30:20.066Z,1006.12
2018-02-15T11:31:20.041Z,1006.13
2018-02-15T11:32:20.038Z,1006.11
2018-02-15T11:33:20.028Z,1006.12
2018-02-15T11:34:20.022Z,1006.11
2018-02-15T11:35:20.009Z,1006.11
2018-02-15T11:36:20.001Z,1006.17
2018-02-15T11:37:19.991Z,1006.16
2018-02-15T11:38:19.977Z,1006.18
2018-02-15T11:39:19.999Z,1006.17
2018-02-15T11:40:19.983Z,1006.16
2018-02-15T11:41:19.961Z,1006.17
2018-02-15T11:42:19.957Z,1006.22
2018-02-15T11:43:19.933Z,1006.17
2018-02-15T11:44:19.934Z,1006.16
2018-02-15T11:45:19.911Z,1006.23
2018-02-15T11:46:19.909Z,1006.23
2018-02-15T11:47:19.897Z,1006.24
2018-02-15T11:48:19.886Z,1006.23
2018-02-15T11:49:19.880Z,1006.23
2018-02-15T11:50:19.864Z,1006.29
2018-02-15T11:51:19.865Z,1006.22
2018-02-15T11:52:19.848Z,1006.21
2018-02-15T11:53:19.835Z,1006.33
2018-02-15T11:54:19.829Z,1006.26
2018-02-15T11:55:19.819Z,1006.28
2018-02-15T11:56:19.810Z,1006.32
2018-02-15T11:57:19.796Z,1006.26
2018-02-15T11:58:19.794Z,1006.24
2018-02-15T11:59:19.786Z,1006.25
2018-02-15T12:00:19.768Z,1006.29
2018-02-15T12:01:19.772Z,1006.29
2018-02-15T12:02:19.761Z,1006.29
2018-02-15T12:03:19.747Z,1006.29
2018-02-15T12:04:19.725Z,1006.30
2018-02-15T12:05:19.724Z,1006.31
2018-02-15T12:06:19.710Z,1006.31
2018-02-15T12:07:19.695Z,1006.35
2018-02-15T12:08:19.694Z,1006.36
2018-02-15T12:09:19.691Z,1006.33
2018-02-15T12:10:19.668Z,1006.33
2018-02-15T12:11:19.660Z,1006.39
2018-02-15T12:12:19.693Z,1006.46
2018-02-15T12:13:19.690Z,1006.48
2018-02-15T12:14:19.638Z,1006.47
2018-02-15T12:15:19.620Z,1006.46
2018-02-15T12:16:19.620Z,1006.51
2018-02-15T12:17:19.602Z,1006.47
2018-02-15T12:18:19.614Z,1006.52
2018-02-15T12:19:19.609Z,1006.46
2018-02-15T12:20:19.584Z,1006.46
2018-02-15T12:21:19.573Z,1006.50
2018-02-15T12:22:19.564Z,1006.44
2018-02-15T12:23:19.568Z,1006.49
2018-02-15T12:24:19.557Z,1006.53
2018-02-15T12:25:19.556Z,1006.53
2018-02-15T12:26:19.529Z,1006.56
2018-02-15T12:27:19.520Z,1006.54
2018-02-15T12:28:19.514Z,1006.55
2018-02-15T12:29:19.498Z,1006.59
2018-02-15T12:30:19.492Z,1006.57
2018-02-15T12:31:19.479Z,1006.60
2018-02-15T12:32:19.482Z,1006.58
2018-02-15T12:33:19.464Z,1006.57
2018-02-15T12:34:19.455Z,1006.59
2018-02-15T12:35:19.454Z,1006.52
2018-02-15T12:36:19.447Z,1006.43
2018-02-15T12:37:19.430Z,1006.46
2018-02-15T12:38:19.453Z,1006.43
2018-02-15T12:39:19.431Z,1006.47
2018-02-15T12:40:19.405Z,1006.48
2018-02-15T12:41:19.412Z,1006.44
2018-02-15T12:42:19.409Z,1006.44
2018-02-15T12:43:19.379Z,1006.48
2018-02-15T12:44:19.384Z,1006.42
2018-02-15T12:45:19.355Z,1006.49
2018-02-15T12:46:19.371Z,1006.42
2018-02-15T12:47:19.330Z,1006.44
2018-02-15T12:48:19.352Z,1006.47
2018-02-15T12:49:19.335Z,1006.52
2018-02-15T12:50:19.318Z,1006.48
2018-02-15T12:51:19.310Z,1006.45
2018-02-15T12:52:19.296Z,1006.49
2018-02-15T12:53:19.288Z,1006.44
2018-02-15T12:54:19.281Z,1006.39
2018-02-15T12:55:19.271Z,1006.39
2018-02-15T12:56:19.279Z,1006.39
2018-02-15T12:57:19.248Z,1006.47
2018-02-15T12:58:19.247Z,1006.44
2018-02-15T12:59:19.234Z,1006.48
2018-02-15T13:00:19.224Z,1006.48
2018-02-15T13:01:19.220Z,1006.48
2018-02-15T13:02:19.220Z,1006.50
2018-02-15T13:03:19.199Z,1006.56
2018-02-15T13:04:19.198Z,1006.53
2018-02-15T13:05:19.184Z,1006.56
2018-02-15T13:06:19.186Z,1006.58
2018-02-15T13:07:19.173Z,1006.58
2018-02-15T13:08:19.161Z,1006.51
2018-02-15T13:09:19.153Z,1006.48
2018-02-15T13:10:19.170Z,1006.50
2018-02-15T13:11:19.135Z,1006.56
2018-02-15T13:12:19.126Z,1006.51
2018-02-15T13:13:19.110Z,1006.55
2018-02-15T13:14:19.157Z,1006.57
2018-02-15T13:15:19.099Z,1006.61
2018-02-15T13:16:19.097Z,1006.62
2018-02-15T13:17:19.083Z,1006.69
2018-02-15T13:18:19.074Z,1006.65
2018-02-15T13:19:19.066Z,1006.61
2018-02-15T13:20:19.057Z,1006.58
2018-02-15T13:21:19.042Z,1006.60
2018-02-15T13:22:19.064Z,1006.56
2018-02-15T13:23:19.034Z,1006.58
2018-02-15T13:24:19.025Z,1006.61
2018-02-15T13:25:19.013Z,1006.49
2018-02-15T13:26:19.000Z,1006.56
2018-02-15T13:27:18.996Z,1006.59
2018-02-15T13:28:18.987Z,1006.57
2018-02-15T13:29:18.981Z,1006.64
2018-02-15T13:30:18.969Z,1006.60
2018-02-15T13:31:18.969Z,1006.60
2018-02-15T13:32:18.958Z,1006.60
2018-02-15T13:33:18.959Z,1006.64
2018-02-15T13:34:18.933Z,1006.60
2018-02-15T13:35:18.923Z,1006.59
2018-02-15T13:36:18.932Z,1006.59
2018-02-15T13:37:18.933Z,1006.63
2018-02-15T13:38:18.894Z,1006.62
2018-02-15T13:39:18.891Z,1006.63
2018-02-15T13:40:18.892Z,1006.64
2018-02-15T13:41:18.877Z,1006.60
2018-02-15T13:42:18.868Z,1006.68
2018-02-15T13:43:18.854Z,1006.59
2018-02-15T13:44:18.878Z,1006.66
2018-02-15T13:45:18.841Z,1006.66
2018-02-15T13:46:18.837Z,1006.65
2018-02-15T13:47:18.825Z,1006.65
2018-02-15T13:48:18.839Z,1006.60
2018-02-15T13:49:18.810Z,1006.66
2018-02-15T13:50:18.806Z,1006.61
2018-02-15T13:51:18.783Z,1006.62
2018-02-15T13:52:18.780Z,1006.64
2018-02-15T13:53:18.774Z,1006.66
2018-02-15T13:53:30.776Z,1006.71
2018-02-15T13:55:18.755Z,1006.70
2018-02-15T13:56:18.792Z,1006.70
2018-02-15T13:57:18.742Z,1006.66
2018-02-15T13:58:18.751Z,1006.71
2018-02-15T13:59:18.721Z,1006.70
2018-02-15T14:00:18.714Z,1006.67
2018-02-15T14:01:18.706Z,1006.72
2018-02-15T14:02:18.707Z,1006.71
2018-02-15T14:03:18.686Z,1006.73
2018-02-15T14:04:18.678Z,1006.75
2018-02-15T14:05:18.669Z,1006.68
2018-02-15T14:06:18.654Z,1006.74
2018-02-15T14:07:18.655Z,1006.79
2018-02-15T14:08:18.666Z,1006.79
2018-02-15T14:09:18.641Z,1006.78
2018-02-15T14:10:18.621Z,1006.78
2018-02-15T14:11:18.624Z,1006.81
2018-02-15T14:12:18.638Z,1006.85
2018-02-15T14:13:18.598Z,1006.84
2018-02-15T14:14:18.590Z,1006.88
2018-02-15T14:15:18.587Z,1006.84
2018-02-15T14:16:18.579Z,1006.88
2018-02-15T14:17:18.567Z,1006.87
2018-02-15T14:18:18.558Z,1006.86
2018-02-15T14:19:18.552Z,1006.88
2018-02-15T14:20:18.548Z,1006.89
2018-02-15T14:21:18.524Z,1006.90
2018-02-15T14:22:18.525Z,1006.91
2018-02-15T14:23:18.535Z,1006.89
2018-02-15T14:24:18.514Z,1006.92
2018-02-15T14:25:18.521Z,1006.96
2018-02-15T14:26:18.490Z,1006.99
2018-02-15T14:27:18.485Z,1006.98
2018-02-15T14:28:18.467Z,1006.94
2018-02-15T14:29:18.462Z,1006.94
2018-02-15T14:30:18.452Z,1006.95
2018-02-15T14:31:18.444Z,1006.96
2018-02-15T14:32:18.441Z,1006.97
2018-02-15T14:33:18.424Z,1007.03
2018-02-15T14:34:18.415Z,1007.06
2018-02-15T14:35:18.404Z,1007.09
2018-02-15T14:36:18.400Z,1007.11
2018-02-15T14:37:18.400Z,1007.13
2018-02-15T14:38:18.397Z,1007.13
2018-02-15T14:39:18.375Z,1007.13
2018-02-15T14:40:18.368Z,1007.14
2018-02-15T14:41:18.354Z,1007.19
2018-02-15T14:42:18.352Z,1007.20
2018-02-15T14:43:18.347Z,1007.18
2018-02-15T14:44:18.344Z,1007.16
2018-02-15T14:45:18.346Z,1007.19
2018-02-15T14:46:18.306Z,1007.17
2018-02-15T14:47:18.320Z,1007.21
2018-02-15T14:48:18.300Z,1007.17
2018-02-15T14:49:18.291Z,1007.16
2018-02-15T14:50:18.286Z,1007.18
2018-02-15T14:51:18.300Z,1007.17
2018-02-15T14:52:18.263Z,1007.18
2018-02-15T14:53:18.252Z,1007.20
2018-02-15T14:54:18.242Z,1007.26
2018-02-15T14:55:18.234Z,1007.27
2018-02-15T14:56:18.248Z,1007.23
2018-02-15T14:57:18.224Z,1007.23
2018-02-15T14:58:18.220Z,1007.27
2018-02-15T14:59:18.198Z,1007.28
2018-02-15T15:00:18.185Z,1007.25
2018-02-15T15:01:18.185Z,1007.27
2018-02-15T15:02:18.178Z,1007.21
2018-02-15T15:03:18.176Z,1007.20
2018-02-15T15:04:18.178Z,1007.24
2018-02-15T15:05:18.181Z,1007.19
2018-02-15T15:06:18.152Z,1007.22
2018-02-15T15:07:18.136Z,1007.21
2018-02-15T15:08:18.128Z,1007.27
2018-02-15T15:09:18.116Z,1007.24
2018-02-15T15:10:18.121Z,1007.24
2018-02-15T15:11:18.106Z,1007.16
2018-02-15T15:12:18.093Z,1007.21
2018-02-15T15:13:18.094Z,1007.20
2018-02-15T15:14:18.070Z,1007.16
2018-02-15T15:15:18.061Z,1007.13
2018-02-15T15:16:18.053Z,1007.13
2018-02-15T15:17:18.046Z,1007.18
2018-02-15T15:18:18.062Z,1007.22
2018-02-15T15:19:18.032Z,1007.23
2018-02-15T15:20:18.020Z,1007.32
2018-02-15T15:21:18.015Z,1007.42
2018-02-15T15:22:18.016Z,1007.37
2018-02-15T15:23:18.016Z,1007.35
2018-02-15T15:24:17.991Z,1007.36
2018-02-15T15:25:17.986Z,1007.42
2018-02-15T15:26:17.974Z,1007.47
2018-02-15T15:27:17.964Z,1007.42
2018-02-15T15:28:17.981Z,1007.42
2018-02-15T15:29:17.945Z,1007.37
2018-02-15T15:30:17.957Z,1007.39
2018-02-15T15:31:17.932Z,1007.46
2018-02-15T15:32:17.936Z,1007.44
2018-02-15T15:33:17.913Z,1007.45
2018-02-15T15:34:17.903Z,1007.48
2018-02-15T15:35:17.897Z,1007.53
2018-02-15T15:36:17.892Z,1007.54
2018-02-15T15:37:17.877Z,1007.60
2018-02-15T15:38:17.893Z,1007.58
2018-02-15T15:39:17.862Z,1007.56
2018-02-15T15:40:17.853Z,1007.60
2018-02-15T15:41:17.867Z,1007.60
2018-02-15T15:42:17.837Z,1007.67
2018-02-15T15:43:17.836Z,1007.67
2018-02-15T15:44:17.816Z,1007.73
2018-02-15T15:45:17.822Z,1007.71
2018-02-15T15:46:17.816Z,1007.73
2018-02-15T15:47:17.798Z,1007.75
2018-02-15T15:48:17.787Z,1007.77
2018-02-15T15:49:17.780Z,1007.77
2018-02-15T15:50:17.768Z,1007.78
2018-02-15T15:51:17.778Z,1007.77
2018-02-15T15:52:17.769Z,1007.75
2018-02-15T15:53:17.746Z,1007.78
2018-02-15T15:54:17.739Z,1007.76
2018-02-15T15:55:17.727Z,1007.83
2018-02-15T15:56:17.721Z,1007.81
2018-02-15T15:57:17.707Z,1007.86
2018-02-15T15:58:17.706Z,1007.89
2018-02-15T15:59:17.688Z,1007.89
2018-02-15T16:00:17.708Z,1007.88
2018-02-15T16:01:17.670Z,1007.89
2018-02-15T16:02:17.664Z,1007.90
2018-02-15T16:03:17.664Z,1007.92
2018-02-15T16:04:17.658Z,1007.94
2018-02-15T16:05:17.647Z,1007.96
2018-02-15T16:06:17.634Z,1007.96
2018-02-15T16:07:17.631Z,1007.99